PWSweather.com
Personal Weather Stations
Station Observations
KOMOKA
Komoka Village, Komoka, ON N0L IRO

Komoka VillageKomoka, ON N0L IRO

Lat: 42.9542444, Lon: -81.4348861

Elevation: 805

Station Type: Davis Vantage Pro 2

Latest ConditionsUpdated 8:40:54 PM EDT Sunday, Mar 26, 2017
Currently Today's Max Today's Min Today's Average
Temperature 45.7°F7.6°C 53.8°F12.1°C 36.3°F2.4°C 43.6°F6.4°C
Dew Point 43.2°F6.2°C 48.6°F9.2°C 34.0°F1.1°C 40.5°F4.7°C
Winds 1.0 mph E1.6 kmh E 9.0 mph E14.5 kmh E - 4.4 mph 7.1 kmh
Wind Gusts 7.0 mph11.3 kmh 24.0 mph38.6 kmh - -
Humidity 91% 92% 82% 89%
Pressure 29.93 in1013.5 mb 30.20 in1022.7 mb 29.93 in1013.5 mb -
Precipitation - 0.14 in3.6 mm - -
Hour Temp Dew Point Humidity Winds Wind Gusts Pressure Precip Precip Rate Daily Precip Total
08:40 PM 45.7°F7.6°C 43.2°F6.2°C 91% 1.0 mph E1.6 kmh E 7.0 mph11.3 kmh 29.93 in1013.5 mb 0.04 in1.0 mm 0.09 in2.3 mm 0.14 in3.6 mm
08:33 PM 45.9°F7.7°C 43.3°F6.3°C 91% Calm Calm 5.0 mph8.0 kmh 29.93 in1013.5 mb 0.03 in0.8 mm 0.09 in2.3 mm 0.14 in3.6 mm
08:26 PM 46.0°F7.8°C 43.5°F6.4°C 91% Calm Calm 1.0 mph1.6 kmh 29.93 in1013.5 mb 0.02 in0.5 mm 0.00 in0.0 mm 0.13 in3.3 mm
08:19 PM 46.0°F7.8°C 43.7°F6.5°C 91% Calm Calm -- 29.93 in1013.5 mb 0.02 in0.5 mm 0.00 in0.0 mm 0.12 in3.0 mm
08:12 PM 46.2°F7.9°C 43.9°F6.6°C 91% Calm Calm 3.0 mph4.8 kmh 29.93 in1013.5 mb 0.02 in0.5 mm 0.00 in0.0 mm 0.12 in3.0 mm
08:05 PM 46.4°F8.0°C 43.9°F6.6°C 91% 1.0 mph ESE1.6 kmh ESE 8.0 mph12.9 kmh 29.93 in1013.5 mb 0.02 in0.5 mm 0.00 in0.0 mm 0.11 in2.8 mm
07:58 PM 46.6°F8.1°C 44.1°F6.7°C 91% 1.0 mph SE1.6 kmh SE 5.0 mph8.0 kmh 29.93 in1013.5 mb 0.02 in0.5 mm 0.00 in0.0 mm 0.11 in2.8 mm
07:51 PM 46.8°F8.2°C 44.2°F6.8°C 91% 1.0 mph E1.6 kmh E 4.0 mph6.4 kmh 29.93 in1013.5 mb 0.02 in0.5 mm 0.00 in0.0 mm 0.10 in2.5 mm
07:44 PM 46.9°F8.3°C 44.4°F6.9°C 91% 1.0 mph E1.6 kmh E 5.0 mph8.0 kmh 29.93 in1013.5 mb 0.02 in0.5 mm 0.00 in0.0 mm 0.10 in2.5 mm
07:37 PM 47.1°F8.4°C 44.6°F7.0°C 91% Calm Calm 4.0 mph6.4 kmh 29.93 in1013.5 mb 0.02 in0.5 mm 0.00 in0.0 mm 0.10 in2.5 mm
07:30 PM 47.1°F8.4°C 44.8°F7.1°C 91% 1.0 mph ENE1.6 kmh ENE 7.0 mph11.3 kmh 29.93 in1013.5 mb 0.03 in0.8 mm 0.00 in0.0 mm 0.10 in2.5 mm
07:23 PM 47.3°F8.5°C 44.8°F7.1°C 91% 1.0 mph E1.6 kmh E 8.0 mph12.9 kmh 29.94 in1013.9 mb 0.03 in0.8 mm 0.00 in0.0 mm 0.10 in2.5 mm
07:16 PM 47.5°F8.6°C 45.0°F7.2°C 91% 1.0 mph E1.6 kmh E 9.0 mph14.5 kmh 29.93 in1013.5 mb 0.03 in0.8 mm 0.09 in2.3 mm 0.09 in2.3 mm
07:09 PM 47.7°F8.7°C 45.1°F7.3°C 91% 1.0 mph E1.6 kmh E 9.0 mph14.5 kmh 29.94 in1013.9 mb 0.02 in0.5 mm 0.00 in0.0 mm 0.09 in2.3 mm
07:02 PM 47.8°F8.8°C 45.3°F7.4°C 91% Calm Calm 5.0 mph8.0 kmh 29.94 in1013.9 mb 0.03 in0.8 mm 0.00 in0.0 mm 0.09 in2.3 mm
06:55 PM 47.8°F8.8°C 45.3°F7.4°C 91% 1.0 mph E1.6 kmh E 5.0 mph8.0 kmh 29.94 in1013.9 mb 0.03 in0.8 mm 0.00 in0.0 mm 0.09 in2.3 mm
06:48 PM 47.8°F8.8°C 45.3°F7.4°C 91% 1.0 mph E1.6 kmh E 7.0 mph11.3 kmh 29.94 in1013.9 mb 0.05 in1.3 mm 0.09 in2.3 mm 0.09 in2.3 mm
06:41 PM 48.0°F8.9°C 45.7°F7.6°C 91% 1.0 mph E1.6 kmh E 5.0 mph8.0 kmh 29.94 in1013.9 mb 0.04 in1.0 mm 0.00 in0.0 mm 0.08 in2.0 mm
06:34 PM 48.2°F9.0°C 45.7°F7.6°C 91% 1.0 mph E1.6 kmh E 5.0 mph8.0 kmh 29.94 in1013.9 mb 0.04 in1.0 mm 0.00 in0.0 mm 0.08 in2.0 mm
06:27 PM 48.4°F9.1°C 45.9°F7.7°C 91% 1.0 mph E1.6 kmh E 5.0 mph8.0 kmh 29.94 in1013.9 mb 0.04 in1.0 mm 0.00 in0.0 mm 0.07 in1.8 mm
06:20 PM 48.4°F9.1°C 45.9°F7.7°C 91% 3.0 mph E4.8 kmh E 5.0 mph8.0 kmh 29.94 in1013.9 mb 0.04 in1.0 mm 0.00 in0.0 mm 0.07 in1.8 mm
06:13 PM 48.6°F9.2°C 46.0°F7.8°C 91% 3.0 mph E4.8 kmh E 5.0 mph8.0 kmh 29.93 in1013.5 mb 0.04 in1.0 mm 0.00 in0.0 mm 0.06 in1.5 mm
06:06 PM 48.6°F9.2°C 46.0°F7.8°C 91% 1.0 mph E1.6 kmh E 5.0 mph8.0 kmh 29.94 in1013.9 mb 0.04 in1.0 mm 0.00 in0.0 mm 0.06 in1.5 mm
05:59 PM 48.7°F9.3°C 46.2°F7.9°C 91% 3.0 mph E4.8 kmh E 8.0 mph12.9 kmh 29.94 in1013.9 mb 0.04 in1.0 mm 0.09 in2.3 mm 0.06 in1.5 mm
05:52 PM 48.9°F9.4°C 46.4°F8.0°C 91% 1.0 mph E1.6 kmh E 7.0 mph11.3 kmh 29.94 in1013.9 mb 0.03 in0.8 mm 0.09 in2.3 mm 0.05 in1.3 mm
05:45 PM 49.1°F9.5°C 46.6°F8.1°C 91% 3.0 mph E4.8 kmh E 7.0 mph11.3 kmh 29.95 in1014.2 mb 0.02 in0.5 mm 0.00 in0.0 mm 0.04 in1.0 mm
05:38 PM 49.3°F9.6°C 46.8°F8.2°C 91% 1.0 mph E1.6 kmh E 5.0 mph8.0 kmh 29.94 in1013.9 mb 0.03 in0.8 mm 0.09 in2.3 mm 0.04 in1.0 mm
05:31 PM 49.5°F9.7°C 46.9°F8.3°C 91% 3.0 mph ENE4.8 kmh ENE 7.0 mph11.3 kmh 29.94 in1013.9 mb 0.02 in0.5 mm 0.00 in0.0 mm 0.03 in0.8 mm
05:24 PM 49.6°F9.8°C 47.1°F8.4°C 91% 3.0 mph E4.8 kmh E 8.0 mph12.9 kmh 29.95 in1014.2 mb 0.03 in0.8 mm 0.09 in2.3 mm 0.03 in0.8 mm
05:17 PM 49.8°F9.9°C 47.3°F8.5°C 91% 1.0 mph E1.6 kmh E 8.0 mph12.9 kmh 29.95 in1014.2 mb 0.02 in0.5 mm 0.00 in0.0 mm 0.02 in0.5 mm
05:10 PM 49.8°F9.9°C 47.3°F8.5°C 91% 1.0 mph E1.6 kmh E 7.0 mph11.3 kmh 29.96 in1014.6 mb 0.02 in0.5 mm 0.00 in0.0 mm 0.02 in0.5 mm
05:03 PM 50.0°F10.0°C 47.1°F8.4°C 90% 1.0 mph E1.6 kmh E 7.0 mph11.3 kmh 29.96 in1014.6 mb 0.02 in0.5 mm 0.00 in0.0 mm 0.02 in0.5 mm
04:56 PM 50.4°F10.2°C 47.5°F8.6°C 90% 1.0 mph E1.6 kmh E 7.0 mph11.3 kmh 29.96 in1014.6 mb 0.02 in0.5 mm 0.00 in0.0 mm 0.02 in0.5 mm
04:49 PM 50.4°F10.2°C 47.7°F8.7°C 90% 1.0 mph E1.6 kmh E 8.0 mph12.9 kmh 29.96 in1014.6 mb 0.02 in0.5 mm 0.00 in0.0 mm 0.02 in0.5 mm
04:42 PM 50.7°F10.4°C 47.7°F8.7°C 89% 1.0 mph E1.6 kmh E 7.0 mph11.3 kmh 29.97 in1014.9 mb 0.02 in0.5 mm 0.09 in2.3 mm 0.02 in0.5 mm
04:35 PM 51.1°F10.6°C 47.3°F8.5°C 87% 1.0 mph E1.6 kmh E 9.0 mph14.5 kmh 29.97 in1014.9 mb 0.01 in0.3 mm 0.09 in2.3 mm 0.01 in0.3 mm
04:28 PM 51.4°F10.8°C 47.5°F8.6°C 86% 1.0 mph ESE1.6 kmh ESE 11.0 mph17.7 kmh 29.96 in1014.6 mb 0.00 in0.0 mm 0.00 in0.0 mm 0.01 in0.3 mm
04:21 PM 52.0°F11.1°C 47.7°F8.7°C 85% 1.0 mph SE1.6 kmh SE 7.0 mph11.3 kmh 29.97 in1014.9 mb 0.00 in0.0 mm 0.00 in0.0 mm 0.00 in0.0 mm
04:14 PM 52.3°F11.3°C 47.7°F8.7°C 84% 1.0 mph ESE1.6 kmh ESE 7.0 mph11.3 kmh 29.97 in1014.9 mb 0.00 in0.0 mm 0.00 in0.0 mm 0.00 in0.0 mm
04:07 PM 52.5°F11.4°C 47.7°F8.7°C 83% 1.0 mph ESE1.6 kmh ESE 7.0 mph11.3 kmh 29.97 in1014.9 mb 0.00 in0.0 mm 0.00 in0.0 mm 0.00 in0.0 mm
04:00 PM 53.1°F11.7°C 48.0°F8.9°C 83% 1.0 mph SE1.6 kmh SE 9.0 mph14.5 kmh 29.97 in1014.9 mb 0.00 in0.0 mm 0.00 in0.0 mm 0.00 in0.0 mm
03:53 PM 53.2°F11.8°C 48.0°F8.9°C 82% 3.0 mph SE4.8 kmh SE 11.0 mph17.7 kmh 29.97 in1014.9 mb 0.00 in0.0 mm 0.00 in0.0 mm 0.00 in0.0 mm
03:46 PM 53.4°F11.9°C 48.2°F9.0°C 82% 3.0 mph ESE4.8 kmh ESE 11.0 mph17.7 kmh 29.97 in1014.9 mb 0.00 in0.0 mm 0.00 in0.0 mm 0.00 in0.0 mm
03:39 PM 53.4°F11.9°C 48.4°F9.1°C 83% 3.0 mph E4.8 kmh E 8.0 mph12.9 kmh 29.97 in1014.9 mb 0.00 in0.0 mm 0.00 in0.0 mm 0.00 in0.0 mm
03:32 PM 53.6°F12.0°C 48.2°F9.0°C 82% 3.0 mph ESE4.8 kmh ESE 7.0 mph11.3 kmh 29.97 in1014.9 mb 0.00 in0.0 mm 0.00 in0.0 mm 0.00 in0.0 mm
03:25 PM 53.4°F11.9°C 48.4°F9.1°C 83% 3.0 mph SE4.8 kmh SE 9.0 mph14.5 kmh 29.97 in1014.9 mb 0.00 in0.0 mm 0.00 in0.0 mm 0.00 in0.0 mm
03:18 PM 53.8°F12.1°C 48.4°F9.1°C 82% 3.0 mph ESE4.8 kmh ESE 9.0 mph14.5 kmh 29.97 in1014.9 mb 0.00 in0.0 mm 0.00 in0.0 mm 0.00 in0.0 mm
03:11 PM 53.8°F12.1°C 48.4°F9.1°C 82% 1.0 mph ESE1.6 kmh ESE 9.0 mph14.5 kmh 29.97 in1014.9 mb 0.00 in0.0 mm 0.00 in0.0 mm 0.00 in0.0 mm
03:04 PM 53.6°F12.0°C 48.6°F9.2°C 83% 3.0 mph ESE4.8 kmh ESE 15.0 mph24.1 kmh 29.97 in1014.9 mb 0.00 in0.0 mm 0.00 in0.0 mm 0.00 in0.0 mm
02:57 PM 53.4°F11.9°C 48.0°F8.9°C 82% 3.0 mph E4.8 kmh E 15.0 mph24.1 kmh 29.97 in1014.9 mb 0.00 in0.0 mm 0.00 in0.0 mm 0.00 in0.0 mm
02:50 PM 53.2°F11.8°C 48.2°F9.0°C 83% 3.0 mph ESE4.8 kmh ESE 12.0 mph19.3 kmh 29.98 in1015.2 mb 0.00 in0.0 mm 0.00 in0.0 mm 0.00 in0.0 mm
02:43 PM 53.2°F11.8°C 48.0°F8.9°C 82% 4.0 mph ESE6.4 kmh ESE 13.0 mph20.9 kmh 29.98 in1015.2 mb 0.00 in0.0 mm 0.00 in0.0 mm 0.00 in0.0 mm
02:36 PM 53.2°F11.8°C 47.8°F8.8°C 82% 3.0 mph ESE4.8 kmh ESE 13.0 mph20.9 kmh 29.98 in1015.2 mb 0.00 in0.0 mm 0.00 in0.0 mm 0.00 in0.0 mm
02:29 PM 53.2°F11.8°C 48.2°F9.0°C 83% 3.0 mph ESE4.8 kmh ESE 9.0 mph14.5 kmh 29.98 in1015.2 mb 0.00 in0.0 mm 0.00 in0.0 mm 0.00 in0.0 mm
02:22 PM 53.1°F11.7°C 47.7°F8.7°C 82% 3.0 mph ESE4.8 kmh ESE 13.0 mph20.9 kmh 29.98 in1015.2 mb 0.00 in0.0 mm 0.00 in0.0 mm 0.00 in0.0 mm
02:15 PM 53.1°F11.7°C 48.0°F8.9°C 83% 3.0 mph E4.8 kmh E 9.0 mph14.5 kmh 29.98 in1015.2 mb 0.00 in0.0 mm 0.00 in0.0 mm 0.00 in0.0 mm
02:08 PM 52.7°F11.5°C 47.7°F8.7°C 83% 4.0 mph ESE6.4 kmh ESE 12.0 mph19.3 kmh 29.98 in1015.2 mb 0.00 in0.0 mm 0.00 in0.0 mm 0.00 in0.0 mm
02:01 PM 52.5°F11.4°C 47.7°F8.7°C 83% 4.0 mph ESE6.4 kmh ESE 12.0 mph19.3 kmh 29.99 in1015.6 mb 0.00 in0.0 mm 0.00 in0.0 mm 0.00 in0.0 mm
01:54 PM 52.5°F11.4°C 47.8°F8.8°C 84% 3.0 mph SE4.8 kmh SE 13.0 mph20.9 kmh 29.99 in1015.6 mb 0.00 in0.0 mm 0.00 in0.0 mm 0.00 in0.0 mm
01:47 PM 52.3°F11.3°C 47.3°F8.5°C 83% 4.0 mph ESE6.4 kmh ESE 13.0 mph20.9 kmh 30.00 in1015.9 mb 0.00 in0.0 mm 0.00 in0.0 mm 0.00 in0.0 mm
01:40 PM 52.0°F11.1°C 47.5°F8.6°C 85% 4.0 mph ESE6.4 kmh ESE 13.0 mph20.9 kmh 30.00 in1015.9 mb 0.00 in0.0 mm 0.00 in0.0 mm 0.00 in0.0 mm
01:33 PM 51.4°F10.8°C 46.8°F8.2°C 84% 7.0 mph ESE11.3 kmh ESE 16.0 mph25.7 kmh 30.00 in1015.9 mb 0.00 in0.0 mm 0.00 in0.0 mm 0.00 in0.0 mm
01:26 PM 51.4°F10.8°C 46.8°F8.2°C 84% 5.0 mph ESE8.0 kmh ESE 16.0 mph25.7 kmh 30.01 in1016.3 mb 0.00 in0.0 mm 0.00 in0.0 mm 0.00 in0.0 mm
01:19 PM 51.3°F10.7°C 46.8°F8.2°C 85% 4.0 mph ESE6.4 kmh ESE 17.0 mph27.4 kmh 30.01 in1016.3 mb 0.00 in0.0 mm 0.00 in0.0 mm 0.00 in0.0 mm
01:12 PM 51.1°F10.6°C 46.4°F8.0°C 84% 4.0 mph SE6.4 kmh SE 17.0 mph27.4 kmh 30.01 in1016.3 mb 0.00 in0.0 mm 0.00 in0.0 mm 0.00 in0.0 mm
01:05 PM 51.1°F10.6°C 46.8°F8.2°C 85% 1.0 mph ESE1.6 kmh ESE 8.0 mph12.9 kmh 30.02 in1016.6 mb 0.00 in0.0 mm 0.00 in0.0 mm 0.00 in0.0 mm
12:58 PM 50.7°F10.4°C 46.0°F7.8°C 84% 3.0 mph SE4.8 kmh SE 9.0 mph14.5 kmh 30.02 in1016.6 mb 0.00 in0.0 mm 0.00 in0.0 mm 0.00 in0.0 mm
12:51 PM 50.7°F10.4°C 46.0°F7.8°C 84% 4.0 mph ESE6.4 kmh ESE 16.0 mph25.7 kmh 30.02 in1016.6 mb 0.00 in0.0 mm 0.00 in0.0 mm 0.00 in0.0 mm
12:44 PM 50.5°F10.3°C 45.9°F7.7°C 84% 3.0 mph ESE4.8 kmh ESE 9.0 mph14.5 kmh 30.03 in1016.9 mb 0.00 in0.0 mm 0.00 in0.0 mm 0.00 in0.0 mm
12:37 PM 50.5°F10.3°C 45.9°F7.7°C 84% 4.0 mph ESE6.4 kmh ESE 11.0 mph17.7 kmh 30.03 in1016.9 mb 0.00 in0.0 mm 0.00 in0.0 mm 0.00 in0.0 mm
12:30 PM 50.5°F10.3°C 46.2°F7.9°C 85% 3.0 mph E4.8 kmh E 8.0 mph12.9 kmh 30.03 in1016.9 mb 0.00 in0.0 mm 0.00 in0.0 mm 0.00 in0.0 mm
12:23 PM 50.4°F10.2°C 46.0°F7.8°C 85% 3.0 mph ESE4.8 kmh ESE 13.0 mph20.9 kmh 30.03 in1016.9 mb 0.00 in0.0 mm 0.00 in0.0 mm 0.00 in0.0 mm
12:16 PM 50.4°F10.2°C 45.7°F7.6°C 84% 4.0 mph ESE6.4 kmh ESE 16.0 mph25.7 kmh 30.04 in1017.3 mb 0.00 in0.0 mm 0.00 in0.0 mm 0.00 in0.0 mm
12:09 PM 50.4°F10.2°C 46.0°F7.8°C 85% 3.0 mph ESE4.8 kmh ESE 9.0 mph14.5 kmh 30.04 in1017.3 mb 0.00 in0.0 mm 0.00 in0.0 mm 0.00 in0.0 mm
12:02 PM 50.2°F10.1°C 45.7°F7.6°C 85% 3.0 mph ESE4.8 kmh ESE 12.0 mph19.3 kmh 30.04 in1017.3 mb 0.00 in0.0 mm 0.00 in0.0 mm 0.00 in0.0 mm
11:55 AM 49.8°F9.9°C 45.3°F7.4°C 84% 4.0 mph ESE6.4 kmh ESE 13.0 mph20.9 kmh 30.05 in1017.6 mb 0.00 in0.0 mm 0.00 in0.0 mm 0.00 in0.0 mm
11:48 AM 49.8°F9.9°C 45.5°F7.5°C 85% 4.0 mph SE6.4 kmh SE 16.0 mph25.7 kmh 30.05 in1017.6 mb 0.00 in0.0 mm 0.00 in0.0 mm 0.00 in0.0 mm
11:41 AM 49.6°F9.8°C 45.3°F7.4°C 85% 4.0 mph E6.4 kmh E 16.0 mph25.7 kmh 30.05 in1017.6 mb 0.00 in0.0 mm 0.00 in0.0 mm 0.00 in0.0 mm
11:34 AM 48.9°F9.4°C 45.1°F7.3°C 87% 4.0 mph E6.4 kmh E 12.0 mph19.3 kmh 30.05 in1017.6 mb 0.00 in0.0 mm 0.00 in0.0 mm 0.00 in0.0 mm
11:27 AM 47.8°F8.8°C 44.1°F6.7°C 87% 4.0 mph E6.4 kmh E 17.0 mph27.4 kmh 30.05 in1017.6 mb 0.00 in0.0 mm 0.00 in0.0 mm 0.00 in0.0 mm
11:20 AM 47.1°F8.4°C 43.3°F6.3°C 87% 4.0 mph E6.4 kmh E 17.0 mph27.4 kmh 30.05 in1017.6 mb 0.00 in0.0 mm 0.00 in0.0 mm 0.00 in0.0 mm
11:13 AM 46.8°F8.2°C 43.5°F6.4°C 88% 5.0 mph E8.0 kmh E 17.0 mph27.4 kmh 30.05 in1017.6 mb 0.00 in0.0 mm 0.00 in0.0 mm 0.00 in0.0 mm
11:06 AM 46.2°F7.9°C 43.2°F6.2°C 89% 4.0 mph E6.4 kmh E 13.0 mph20.9 kmh 30.06 in1017.9 mb 0.00 in0.0 mm 0.00 in0.0 mm 0.00 in0.0 mm
10:59 AM 45.3°F7.4°C 42.6°F5.9°C 90% 4.0 mph E6.4 kmh E 15.0 mph24.1 kmh 30.06 in1017.9 mb 0.00 in0.0 mm 0.00 in0.0 mm 0.00 in0.0 mm
10:52 AM 44.8°F7.1°C 41.9°F5.5°C 90% 5.0 mph E8.0 kmh E 17.0 mph27.4 kmh 30.06 in1017.9 mb 0.00 in0.0 mm 0.00 in0.0 mm 0.00 in0.0 mm
10:45 AM 44.2°F6.8°C 41.5°F5.3°C 90% 5.0 mph E8.0 kmh E 19.0 mph30.6 kmh 30.06 in1017.9 mb 0.00 in0.0 mm 0.00 in0.0 mm 0.00 in0.0 mm
10:38 AM 43.7°F6.5°C 41.0°F5.0°C 90% 5.0 mph E8.0 kmh E 19.0 mph30.6 kmh 30.06 in1017.9 mb 0.00 in0.0 mm 0.00 in0.0 mm 0.00 in0.0 mm
10:31 AM 43.2°F6.2°C 40.6°F4.8°C 91% 5.0 mph E8.0 kmh E 16.0 mph25.7 kmh 30.06 in1017.9 mb 0.00 in0.0 mm 0.00 in0.0 mm 0.00 in0.0 mm
10:24 AM 42.6°F5.9°C 40.1°F4.5°C 91% 4.0 mph E6.4 kmh E 16.0 mph25.7 kmh 30.07 in1018.3 mb 0.00 in0.0 mm 0.00 in0.0 mm 0.00 in0.0 mm
10:17 AM 42.1°F5.6°C 39.6°F4.2°C 91% 5.0 mph E8.0 kmh E 16.0 mph25.7 kmh 30.07 in1018.3 mb 0.00 in0.0 mm 0.00 in0.0 mm 0.00 in0.0 mm
10:10 AM 41.5°F5.3°C 39.0°F3.9°C 91% 5.0 mph E8.0 kmh E 17.0 mph27.4 kmh 30.07 in1018.3 mb 0.00 in0.0 mm 0.00 in0.0 mm 0.00 in0.0 mm
10:03 AM 41.2°F5.1°C 39.0°F3.9°C 92% 5.0 mph E8.0 kmh E 17.0 mph27.4 kmh 30.07 in1018.3 mb 0.00 in0.0 mm 0.00 in0.0 mm 0.00 in0.0 mm
09:56 AM 40.6°F4.8°C 38.5°F3.6°C 92% 5.0 mph E8.0 kmh E 13.0 mph20.9 kmh 30.07 in1018.3 mb 0.00 in0.0 mm 0.00 in0.0 mm 0.00 in0.0 mm
09:49 AM 40.3°F4.6°C 38.1°F3.4°C 92% 5.0 mph E8.0 kmh E 13.0 mph20.9 kmh 30.07 in1018.3 mb 0.00 in0.0 mm 0.00 in0.0 mm 0.00 in0.0 mm
09:42 AM 39.9°F4.4°C 37.9°F3.3°C 92% 5.0 mph E8.0 kmh E 13.0 mph20.9 kmh 30.08 in1018.6 mb 0.00 in0.0 mm 0.00 in0.0 mm 0.00 in0.0 mm
09:35 AM 39.7°F4.3°C 37.6°F3.1°C 92% 5.0 mph E8.0 kmh E 9.0 mph14.5 kmh 30.07 in1018.3 mb 0.00 in0.0 mm 0.00 in0.0 mm 0.00 in0.0 mm
09:28 AM 39.4°F4.1°C 37.2°F2.9°C 92% 5.0 mph E8.0 kmh E 15.0 mph24.1 kmh 30.08 in1018.6 mb 0.00 in0.0 mm 0.00 in0.0 mm 0.00 in0.0 mm
09:21 AM 39.2°F4.0°C 37.0°F2.8°C 92% 5.0 mph E8.0 kmh E 15.0 mph24.1 kmh 30.08 in1018.6 mb 0.00 in0.0 mm 0.00 in0.0 mm 0.00 in0.0 mm
09:14 AM 39.0°F3.9°C 36.9°F2.7°C 92% 7.0 mph E11.3 kmh E 15.0 mph24.1 kmh 30.08 in1018.6 mb 0.00 in0.0 mm 0.00 in0.0 mm 0.00 in0.0 mm
09:07 AM 38.8°F3.8°C 36.7°F2.6°C 92% 7.0 mph E11.3 kmh E 15.0 mph24.1 kmh 30.08 in1018.6 mb 0.00 in0.0 mm 0.00 in0.0 mm 0.00 in0.0 mm
09:00 AM 38.5°F3.6°C 36.3°F2.4°C 92% 7.0 mph E11.3 kmh E 16.0 mph25.7 kmh 30.08 in1018.6 mb 0.00 in0.0 mm 0.00 in0.0 mm 0.00 in0.0 mm
08:53 AM 38.1°F3.4°C 36.1°F2.3°C 92% 7.0 mph E11.3 kmh E 16.0 mph25.7 kmh 30.09 in1019.0 mb 0.00 in0.0 mm 0.00 in0.0 mm 0.00 in0.0 mm
08:46 AM 37.9°F3.3°C 35.8°F2.1°C 92% 7.0 mph E11.3 kmh E 17.0 mph27.4 kmh 30.09 in1019.0 mb 0.00 in0.0 mm 0.00 in0.0 mm 0.00 in0.0 mm
08:39 AM 37.8°F3.2°C 35.6°F2.0°C 92% 5.0 mph E8.0 kmh E 20.0 mph32.2 kmh 30.09 in1019.0 mb 0.00 in0.0 mm 0.00 in0.0 mm 0.00 in0.0 mm
08:32 AM 37.6°F3.1°C 35.4°F1.9°C 92% 7.0 mph E11.3 kmh E 15.0 mph24.1 kmh 30.09 in1019.0 mb 0.00 in0.0 mm 0.00 in0.0 mm 0.00 in0.0 mm
08:25 AM 37.4°F3.0°C 35.2°F1.8°C 92% 7.0 mph E11.3 kmh E 15.0 mph24.1 kmh 30.09 in1019.0 mb 0.00 in0.0 mm 0.00 in0.0 mm 0.00 in0.0 mm
08:18 AM 37.2°F2.9°C 35.1°F1.7°C 92% 5.0 mph E8.0 kmh E 13.0 mph20.9 kmh 30.09 in1019.0 mb 0.00 in0.0 mm 0.00 in0.0 mm 0.00 in0.0 mm
08:11 AM 37.0°F2.8°C 35.1°F1.7°C 92% 5.0 mph E8.0 kmh E 15.0 mph24.1 kmh 30.09 in1019.0 mb 0.00 in0.0 mm 0.00 in0.0 mm 0.00 in0.0 mm
08:04 AM 37.0°F2.8°C 34.9°F1.6°C 92% 7.0 mph ENE11.3 kmh ENE 13.0 mph20.9 kmh 30.09 in1019.0 mb 0.00 in0.0 mm 0.00 in0.0 mm 0.00 in0.0 mm
07:57 AM 37.0°F2.8°C 34.9°F1.6°C 92% 5.0 mph ENE8.0 kmh ENE 13.0 mph20.9 kmh 30.09 in1019.0 mb 0.00 in0.0 mm 0.00 in0.0 mm 0.00 in0.0 mm
07:50 AM 36.9°F2.7°C 34.9°F1.6°C 92% 5.0 mph E8.0 kmh E 15.0 mph24.1 kmh 30.09 in1019.0 mb 0.00 in0.0 mm 0.00 in0.0 mm 0.00 in0.0 mm
07:43 AM 36.9°F2.7°C 34.9°F1.6°C 92% 5.0 mph E8.0 kmh E 15.0 mph24.1 kmh 30.09 in1019.0 mb 0.00 in0.0 mm 0.00 in0.0 mm 0.00 in0.0 mm
07:36 AM 36.9°F2.7°C 34.7°F1.5°C 92% 7.0 mph E11.3 kmh E 17.0 mph27.4 kmh 30.10 in1019.3 mb 0.00 in0.0 mm 0.00 in0.0 mm 0.00 in0.0 mm
07:29 AM 36.9°F2.7°C 34.7°F1.5°C 92% 7.0 mph E11.3 kmh E 15.0 mph24.1 kmh 30.09 in1019.0 mb 0.00 in0.0 mm 0.00 in0.0 mm 0.00 in0.0 mm
07:22 AM 36.9°F2.7°C 34.7°F1.5°C 92% 5.0 mph E8.0 kmh E 12.0 mph19.3 kmh 30.10 in1019.3 mb 0.00 in0.0 mm 0.00 in0.0 mm 0.00 in0.0 mm
07:15 AM 36.7°F2.6°C 34.5°F1.4°C 92% 5.0 mph E8.0 kmh E 16.0 mph25.7 kmh 30.10 in1019.3 mb 0.00 in0.0 mm 0.00 in0.0 mm 0.00 in0.0 mm
07:08 AM 36.7°F2.6°C 34.5°F1.4°C 92% 7.0 mph E11.3 kmh E 16.0 mph25.7 kmh 30.10 in1019.3 mb 0.00 in0.0 mm 0.00 in0.0 mm 0.00 in0.0 mm
07:01 AM 36.7°F2.6°C 34.5°F1.4°C 92% 7.0 mph E11.3 kmh E 13.0 mph20.9 kmh 30.10 in1019.3 mb 0.00 in0.0 mm 0.00 in0.0 mm 0.00 in0.0 mm
06:54 AM 36.7°F2.6°C 34.5°F1.4°C 92% 5.0 mph E8.0 kmh E 12.0 mph19.3 kmh 30.10 in1019.3 mb 0.00 in0.0 mm 0.00 in0.0 mm 0.00 in0.0 mm
06:47 AM 36.7°F2.6°C 34.5°F1.4°C 92% 5.0 mph E8.0 kmh E 15.0 mph24.1 kmh 30.11 in1019.6 mb 0.00 in0.0 mm 0.00 in0.0 mm 0.00 in0.0 mm
06:40 AM 36.7°F2.6°C 34.5°F1.4°C 92% 5.0 mph E8.0 kmh E 19.0 mph30.6 kmh 30.11 in1019.6 mb 0.00 in0.0 mm 0.00 in0.0 mm 0.00 in0.0 mm
06:33 AM 36.5°F2.5°C 34.3°F1.3°C 92% 7.0 mph E11.3 kmh E 19.0 mph30.6 kmh 30.11 in1019.6 mb 0.00 in0.0 mm 0.00 in0.0 mm 0.00 in0.0 mm
06:26 AM 36.5°F2.5°C 34.3°F1.3°C 92% 5.0 mph E8.0 kmh E 13.0 mph20.9 kmh 30.11 in1019.6 mb 0.00 in0.0 mm 0.00 in0.0 mm 0.00 in0.0 mm
06:19 AM 36.5°F2.5°C 34.3°F1.3°C 92% 5.0 mph E8.0 kmh E 12.0 mph19.3 kmh 30.11 in1019.6 mb 0.00 in0.0 mm 0.00 in0.0 mm 0.00 in0.0 mm
06:12 AM 36.5°F2.5°C 34.3°F1.3°C 92% 5.0 mph E8.0 kmh E 13.0 mph20.9 kmh 30.12 in1020.0 mb 0.00 in0.0 mm 0.00 in0.0 mm 0.00 in0.0 mm
06:05 AM 36.5°F2.5°C 34.3°F1.3°C 92% 5.0 mph E8.0 kmh E 13.0 mph20.9 kmh 30.12 in1020.0 mb 0.00 in0.0 mm 0.00 in0.0 mm 0.00 in0.0 mm
05:58 AM 36.3°F2.4°C 34.3°F1.3°C 92% 5.0 mph E8.0 kmh E 19.0 mph30.6 kmh 30.12 in1020.0 mb 0.00 in0.0 mm 0.00 in0.0 mm 0.00 in0.0 mm
05:51 AM 36.3°F2.4°C 34.3°F1.3°C 92% 5.0 mph E8.0 kmh E 19.0 mph30.6 kmh 30.12 in1020.0 mb 0.00 in0.0 mm 0.00 in0.0 mm 0.00 in0.0 mm
05:44 AM 36.5°F2.5°C 34.3°F1.3°C 92% 5.0 mph E8.0 kmh E 16.0 mph25.7 kmh 30.12 in1020.0 mb 0.00 in0.0 mm 0.00 in0.0 mm 0.00 in0.0 mm
05:37 AM 36.5°F2.5°C 34.3°F1.3°C 92% 5.0 mph E8.0 kmh E 15.0 mph24.1 kmh 30.12 in1020.0 mb 0.00 in0.0 mm 0.00 in0.0 mm 0.00 in0.0 mm
05:30 AM 36.5°F2.5°C 34.3°F1.3°C 92% 7.0 mph E11.3 kmh E 16.0 mph25.7 kmh 30.12 in1020.0 mb 0.00 in0.0 mm 0.00 in0.0 mm 0.00 in0.0 mm
05:23 AM 36.5°F2.5°C 34.3°F1.3°C 92% 7.0 mph E11.3 kmh E 20.0 mph32.2 kmh 30.12 in1020.0 mb 0.00 in0.0 mm 0.00 in0.0 mm 0.00 in0.0 mm
05:16 AM 36.5°F2.5°C 34.3°F1.3°C 92% 7.0 mph E11.3 kmh E 20.0 mph32.2 kmh 30.12 in1020.0 mb 0.00 in0.0 mm 0.00 in0.0 mm 0.00 in0.0 mm
05:09 AM 36.7°F2.6°C 34.2°F1.2°C 91% 7.0 mph E11.3 kmh E 15.0 mph24.1 kmh 30.12 in1020.0 mb 0.00 in0.0 mm 0.00 in0.0 mm 0.00 in0.0 mm
05:02 AM 36.7°F2.6°C 34.5°F1.4°C 92% 7.0 mph E11.3 kmh E 15.0 mph24.1 kmh 30.12 in1020.0 mb 0.00 in0.0 mm 0.00 in0.0 mm 0.00 in0.0 mm
04:55 AM 36.7°F2.6°C 34.5°F1.4°C 92% 7.0 mph E11.3 kmh E 16.0 mph25.7 kmh 30.13 in1020.3 mb 0.00 in0.0 mm 0.00 in0.0 mm 0.00 in0.0 mm
04:48 AM 36.7°F2.6°C 34.3°F1.3°C 91% 5.0 mph E8.0 kmh E 15.0 mph24.1 kmh 30.13 in1020.3 mb 0.00 in0.0 mm 0.00 in0.0 mm 0.00 in0.0 mm
04:41 AM 36.9°F2.7°C 34.3°F1.3°C 91% 5.0 mph E8.0 kmh E 17.0 mph27.4 kmh 30.13 in1020.3 mb 0.00 in0.0 mm 0.00 in0.0 mm 0.00 in0.0 mm
04:34 AM 36.9°F2.7°C 34.3°F1.3°C 91% 7.0 mph E11.3 kmh E 17.0 mph27.4 kmh 30.13 in1020.3 mb 0.00 in0.0 mm 0.00 in0.0 mm 0.00 in0.0 mm
04:27 AM 36.9°F2.7°C 34.3°F1.3°C 91% 7.0 mph E11.3 kmh E 16.0 mph25.7 kmh 30.12 in1020.0 mb 0.00 in0.0 mm 0.00 in0.0 mm 0.00 in0.0 mm
04:20 AM 36.9°F2.7°C 34.5°F1.4°C 91% 7.0 mph E11.3 kmh E 16.0 mph25.7 kmh 30.13 in1020.3 mb 0.00 in0.0 mm 0.00 in0.0 mm 0.00 in0.0 mm
04:13 AM 36.9°F2.7°C 34.5°F1.4°C 91% 7.0 mph E11.3 kmh E 16.0 mph25.7 kmh 30.13 in1020.3 mb 0.00 in0.0 mm 0.00 in0.0 mm 0.00 in0.0 mm
04:06 AM 36.9°F2.7°C 34.3°F1.3°C 91% 8.0 mph E12.9 kmh E 16.0 mph25.7 kmh 30.13 in1020.3 mb 0.00 in0.0 mm 0.00 in0.0 mm 0.00 in0.0 mm
03:59 AM 36.9°F2.7°C 34.3°F1.3°C 91% 8.0 mph E12.9 kmh E 16.0 mph25.7 kmh 30.13 in1020.3 mb 0.00 in0.0 mm 0.00 in0.0 mm 0.00 in0.0 mm
03:52 AM 36.9°F2.7°C 34.3°F1.3°C 91% 7.0 mph E11.3 kmh E 16.0 mph25.7 kmh 30.13 in1020.3 mb 0.00 in0.0 mm 0.00 in0.0 mm 0.00 in0.0 mm
03:45 AM 36.7°F2.6°C 34.3°F1.3°C 91% 7.0 mph E11.3 kmh E 21.0 mph33.8 kmh 30.14 in1020.7 mb 0.00 in0.0 mm 0.00 in0.0 mm 0.00 in0.0 mm
03:38 AM 36.7°F2.6°C 34.3°F1.3°C 91% 9.0 mph E14.5 kmh E 21.0 mph33.8 kmh 30.14 in1020.7 mb 0.00 in0.0 mm 0.00 in0.0 mm 0.00 in0.0 mm
03:31 AM 36.7°F2.6°C 34.0°F1.1°C 90% 7.0 mph E11.3 kmh E 16.0 mph25.7 kmh 30.14 in1020.7 mb 0.00 in0.0 mm 0.00 in0.0 mm 0.00 in0.0 mm
03:24 AM 36.9°F2.7°C 34.2°F1.2°C 90% 7.0 mph E11.3 kmh E 17.0 mph27.4 kmh 30.15 in1021.0 mb 0.00 in0.0 mm 0.00 in0.0 mm 0.00 in0.0 mm
03:17 AM 36.9°F2.7°C 34.2°F1.2°C 90% 8.0 mph E12.9 kmh E 24.0 mph38.6 kmh 30.15 in1021.0 mb 0.00 in0.0 mm 0.00 in0.0 mm 0.00 in0.0 mm
03:10 AM 36.9°F2.7°C 34.2°F1.2°C 90% 8.0 mph E12.9 kmh E 19.0 mph30.6 kmh 30.15 in1021.0 mb 0.00 in0.0 mm 0.00 in0.0 mm 0.00 in0.0 mm
03:03 AM 37.0°F2.8°C 34.3°F1.3°C 90% 8.0 mph E12.9 kmh E 19.0 mph30.6 kmh 30.15 in1021.0 mb 0.00 in0.0 mm 0.00 in0.0 mm 0.00 in0.0 mm
02:56 AM 37.0°F2.8°C 34.5°F1.4°C 90% 8.0 mph E12.9 kmh E 20.0 mph32.2 kmh 30.16 in1021.3 mb 0.00 in0.0 mm 0.00 in0.0 mm 0.00 in0.0 mm
02:49 AM 37.2°F2.9°C 34.3°F1.3°C 89% 8.0 mph E12.9 kmh E 17.0 mph27.4 kmh 30.16 in1021.3 mb 0.00 in0.0 mm 0.00 in0.0 mm 0.00 in0.0 mm
02:42 AM 37.2°F2.9°C 34.3°F1.3°C 89% 7.0 mph E11.3 kmh E 17.0 mph27.4 kmh 30.16 in1021.3 mb 0.00 in0.0 mm 0.00 in0.0 mm 0.00 in0.0 mm
02:35 AM 37.2°F2.9°C 34.3°F1.3°C 89% 5.0 mph E8.0 kmh E 17.0 mph27.4 kmh 30.16 in1021.3 mb 0.00 in0.0 mm 0.00 in0.0 mm 0.00 in0.0 mm
02:28 AM 37.4°F3.0°C 34.5°F1.4°C 89% 7.0 mph E11.3 kmh E 15.0 mph24.1 kmh 30.17 in1021.7 mb 0.00 in0.0 mm 0.00 in0.0 mm 0.00 in0.0 mm
02:21 AM 37.4°F3.0°C 34.5°F1.4°C 89% 7.0 mph E11.3 kmh E 23.0 mph37.0 kmh 30.17 in1021.7 mb 0.00 in0.0 mm 0.00 in0.0 mm 0.00 in0.0 mm
02:14 AM 37.4°F3.0°C 34.5°F1.4°C 89% 7.0 mph E11.3 kmh E 23.0 mph37.0 kmh 30.17 in1021.7 mb 0.00 in0.0 mm 0.00 in0.0 mm 0.00 in0.0 mm
02:07 AM 37.6°F3.1°C 34.5°F1.4°C 89% 8.0 mph E12.9 kmh E 23.0 mph37.0 kmh 30.17 in1021.7 mb 0.00 in0.0 mm 0.00 in0.0 mm 0.00 in0.0 mm
02:00 AM 37.6°F3.1°C 34.7°F1.5°C 89% 7.0 mph E11.3 kmh E 17.0 mph27.4 kmh 30.18 in1022.0 mb 0.00 in0.0 mm 0.00 in0.0 mm 0.00 in0.0 mm
01:53 AM 37.8°F3.2°C 34.7°F1.5°C 89% 7.0 mph E11.3 kmh E 16.0 mph25.7 kmh 30.18 in1022.0 mb 0.00 in0.0 mm 0.00 in0.0 mm 0.00 in0.0 mm
01:46 AM 37.8°F3.2°C 34.7°F1.5°C 89% 7.0 mph E11.3 kmh E 15.0 mph24.1 kmh 30.18 in1022.0 mb 0.00 in0.0 mm 0.00 in0.0 mm 0.00 in0.0 mm
01:39 AM 37.8°F3.2°C 34.9°F1.6°C 89% 5.0 mph E8.0 kmh E 13.0 mph20.9 kmh 30.18 in1022.0 mb 0.00 in0.0 mm 0.00 in0.0 mm 0.00 in0.0 mm
01:32 AM 37.9°F3.3°C 34.9°F1.6°C 89% 5.0 mph E8.0 kmh E 13.0 mph20.9 kmh 30.19 in1022.4 mb 0.00 in0.0 mm 0.00 in0.0 mm 0.00 in0.0 mm
01:25 AM 37.9°F3.3°C 34.9°F1.6°C 89% 7.0 mph E11.3 kmh E 16.0 mph25.7 kmh 30.19 in1022.4 mb 0.00 in0.0 mm 0.00 in0.0 mm 0.00 in0.0 mm
01:18 AM 37.9°F3.3°C 34.9°F1.6°C 89% 7.0 mph E11.3 kmh E 15.0 mph24.1 kmh 30.20 in1022.7 mb 0.00 in0.0 mm 0.00 in0.0 mm 0.00 in0.0 mm
01:11 AM 37.9°F3.3°C 34.7°F1.5°C 88% 5.0 mph E8.0 kmh E 13.0 mph20.9 kmh 30.20 in1022.7 mb 0.00 in0.0 mm 0.00 in0.0 mm 0.00 in0.0 mm
01:04 AM 37.9°F3.3°C 35.1°F1.7°C 89% 5.0 mph E8.0 kmh E 17.0 mph27.4 kmh 30.20 in1022.7 mb 0.00 in0.0 mm 0.00 in0.0 mm 0.00 in0.0 mm
12:57 AM 37.9°F3.3°C 34.7°F1.5°C 88% 5.0 mph E8.0 kmh E 15.0 mph24.1 kmh 30.20 in1022.7 mb 0.00 in0.0 mm 0.00 in0.0 mm 0.00 in0.0 mm
12:50 AM 37.9°F3.3°C 35.1°F1.7°C 89% 7.0 mph E11.3 kmh E 20.0 mph32.2 kmh 30.20 in1022.7 mb 0.00 in0.0 mm 0.00 in0.0 mm 0.00 in0.0 mm
12:43 AM 37.9°F3.3°C 35.1°F1.7°C 89% 7.0 mph E11.3 kmh E 20.0 mph32.2 kmh 30.20 in1022.7 mb 0.00 in0.0 mm 0.00 in0.0 mm 0.00 in0.0 mm
12:36 AM 37.9°F3.3°C 35.1°F1.7°C 89% 5.0 mph E8.0 kmh E 16.0 mph25.7 kmh 30.20 in1022.7 mb 0.00 in0.0 mm 0.00 in0.0 mm 0.00 in0.0 mm
12:29 AM 37.9°F3.3°C 35.2°F1.8°C 90% 5.0 mph E8.0 kmh E 16.0 mph25.7 kmh 30.20 in1022.7 mb 0.00 in0.0 mm 0.00 in0.0 mm 0.00 in0.0 mm
12:22 AM 37.9°F3.3°C 35.2°F1.8°C 90% 5.0 mph E8.0 kmh E 16.0 mph25.7 kmh 30.20 in1022.7 mb 0.00 in0.0 mm 0.00 in0.0 mm 0.00 in0.0 mm
12:15 AM 37.9°F3.3°C 35.2°F1.8°C 90% 7.0 mph E11.3 kmh E 21.0 mph33.8 kmh 30.20 in1022.7 mb 0.00 in0.0 mm 0.00 in0.0 mm 0.00 in0.0 mm
12:08 AM 37.9°F3.3°C 35.2°F1.8°C 90% 7.0 mph E11.3 kmh E 16.0 mph25.7 kmh 30.20 in1022.7 mb 0.00 in0.0 mm 0.00 in0.0 mm 0.00 in0.0 mm
12:01 AM 37.9°F3.3°C 35.2°F1.8°C 90% 7.0 mph E11.3 kmh E 21.0 mph33.8 kmh 30.20 in1022.7 mb 0.00 in0.0 mm 0.00 in0.0 mm 0.00 in0.0 mm